sensor_id;sensor_type;location;lat;lon;timestamp;pressure;altitude;pressure_sealevel;temperature
77385;BMP280;66444;49.680;18.538;2023-04-03T00:00:42;97832.88613074017;;;3.389673162251711
77385;BMP280;66444;49.680;18.538;2023-04-03T00:05:45;97843.68004889203;;;3.37438718364574
77385;BMP280;66444;49.680;18.538;2023-04-03T00:10:54;97841.83467873232;;;3.3794825156684967
77385;BMP280;66444;49.680;18.538;2023-04-03T00:15:57;97844.96835326578;;;3.3998637855518608
77385;BMP280;66444;49.680;18.538;2023-04-03T00:21:00;97841.83467873232;;;3.3794825156684967
77385;BMP280;66444;49.680;18.538;2023-04-03T00:26:04;97828.96951919672;;;3.364196502137929
77385;BMP280;66444;49.680;18.538;2023-04-03T00:31:18;97847.8757533049;;;3.384577841870487
77385;BMP280;66444;49.680;18.538;2023-04-03T00:36:21;97840.8246895654;;;3.3387196965049952
77385;BMP280;66444;49.680;18.538;2023-04-03T00:41:24;97853.46220942822;;;3.3183381472248583
77385;BMP280;66444;49.680;18.538;2023-04-03T00:46:28;97850.3771891257;;;3.247001991327852
77385;BMP280;66444;49.680;18.538;2023-04-03T00:51:31;97853.55992973743;;;3.2164290038403123
77385;BMP280;66444;49.680;18.538;2023-04-03T00:56:36;97846.18178957728;;;3.2368110187817365
77385;BMP280;66444;49.680;18.538;2023-04-03T01:01:40;97849.64166334215;;;3.190951354196295
77385;BMP280;66444;49.680;18.538;2023-04-03T01:06:45;97844.61463939026;;;3.226620022952557
77385;BMP280;66444;49.680;18.538;2023-04-03T01:11:48;97859.27452218755;;;3.2877656486816704
77385;BMP280;66444;49.680;18.538;2023-04-03T01:16:52;97856.23501663137;;;3.1654735590331256
77385;BMP280;66444;49.680;18.538;2023-04-03T01:22:02;97853.42204723507;;;3.0788479669950903
77385;BMP280;66444;49.680;18.538;2023-04-03T01:27:18;97851.62276520321;;;3.0329866784159094
77385;BMP280;66444;49.680;18.538;2023-04-03T01:32:21;97855.86098359001;;;2.9922206927556543
77385;BMP280;66444;49.680;18.538;2023-04-03T01:37:29;97859.54744722502;;;2.98202913813293
77385;BMP280;66444;49.680;18.538;2023-04-03T01:42:33;97862.21593637377;;;2.931071015773341
77385;BMP280;66444;49.680;18.538;2023-04-03T01:47:37;97858.99650668682;;;3.0126037321519106
77385;BMP280;66444;49.680;18.538;2023-04-03T01:52:40;97862.68313340643;;;3.002412224095315
77385;BMP280;66444;49.680;18.538;2023-04-03T01:57:44;97868.4878880845;;;2.971837560227141
77385;BMP280;66444;49.680;18.538;2023-04-03T02:02:52;97871.19467433656;;;2.8699205006007107
77385;BMP280;66444;49.680;18.538;2023-04-03T02:07:56;97877.50622861471;;;2.8597286665812134
77385;BMP280;66444;49.680;18.538;2023-04-03T02:13:00;97880.17005042791;;;2.8087691472377627
77385;BMP280;66444;49.680;18.538;2023-04-03T02:18:04;97883.61664221465;;;2.7629050821531562
77385;BMP280;66444;49.680;18.538;2023-04-03T02:23:08;97883.1399174244;;;2.691560043767095
77385;BMP280;66444;49.680;18.538;2023-04-03T02:28:11;97886.03842515609;;;2.6762716728262603
77385;BMP280;66444;49.680;18.538;2023-04-03T02:33:20;97884.94723411238;;;2.7374248422682284
77385;BMP280;66444;49.680;18.538;2023-04-03T02:38:24;97877.615227626;;;2.706848362321034
77385;BMP280;66444;49.680;18.538;2023-04-03T02:43:28;97877.64934196392;;;2.655887096747756
77385;BMP280;66444;49.680;18.538;2023-04-03T02:48:31;97877.13755086924;;;2.635502427536994
77385;BMP280;66444;49.680;18.538;2023-04-03T02:53:35;97886.5833429158;;;2.6456947737839074
77385;BMP280;66444;49.680;18.538;2023-04-03T02:58:39;97888.69676851263;;;2.625310058007017
77385;BMP280;66444;49.680;18.538;2023-04-03T03:03:42;97884.50225750596;;;2.615117665193975
77385;BMP280;66444;49.680;18.538;2023-04-03T03:08:46;97899.74273170045;;;2.5947328097186984
77385;BMP280;66444;49.680;18.538;2023-04-03T03:13:49;97889.48125175848;;;2.6304062456823885
77385;BMP280;66444;49.680;18.538;2023-04-03T03:18:53;97896.54170419689;;;2.6762716728262603
77385;BMP280;66444;49.680;18.538;2023-04-03T03:23:56;97905.47583450687;;;2.6660793964285405
77385;BMP280;66444;49.680;18.538;2023-04-03T03:29:00;97900.2556015578;;;2.615117665193975
77385;BMP280;66444;49.680;18.538;2023-04-03T03:34:04;97907.6191710245;;;2.5947328097186984
77385;BMP280;66444;49.680;18.538;2023-04-03T03:39:08;97898.68642452735;;;2.6049252490978687
77385;BMP280;66444;49.680;18.538;2023-04-03T03:44:12;97896.06090656319;;;2.6049252490978687
77385;BMP280;66444;49.680;18.538;2023-04-03T03:49:16;97913.14142132673;;;2.5794441069941967
77385;BMP280;66444;49.680;18.538;2023-04-03T03:54:19;97909.7312904744;;;2.574347861111164
77385;BMP280;66444;49.680;18.538;2023-04-03T03:59:22;97909.7312904744;;;2.574347861111164
77385;BMP280;66444;49.680;18.538;2023-04-03T04:04:24;97913.92615583481;;;2.584540347056463
77385;BMP280;66444;49.680;18.538;2023-04-03T04:09:27;97916.03794535901;;;2.5641553518828006
77385;BMP280;66444;49.680;18.538;2023-04-03T04:14:34;97914.71089263982;;;2.589636581297964
77385;BMP280;66444;49.680;18.538;2023-04-03T04:19:37;97910.54459915598;;;2.5284813862293958
77385;BMP280;66444;49.680;18.538;2023-04-03T04:24:40;97920.26057555592;;;2.5233850821387023
77385;BMP280;66444;49.680;18.538;2023-04-03T04:29:42;97925.04687069521;;;2.4010720377322285
77385;BMP280;66444;49.680;18.538;2023-04-03T04:34:45;97927.17896755357;;;2.329721213504672
77385;BMP280;66444;49.680;18.538;2023-04-03T04:39:47;97936.10610133832;;;2.3195281454827636
77385;BMP280;66444;49.680;18.538;2023-04-03T04:44:50;97945.01195938898;;;2.3603002778720112
77385;BMP280;66444;49.680;18.538;2023-04-03T04:49:52;97937.96580168621;;;2.263465855177492
77385;BMP280;66444;49.680;18.538;2023-04-03T04:54:55;97952.97593386617;;;2.105468338634819
77385;BMP280;66444;49.680;18.538;2023-04-03T04:59:58;97958.7697845575;;;2.023919044714421
77385;BMP280;66444;49.680;18.538;2023-04-03T05:05:00;97962.4446173683;;;2.0137252782005817
77385;BMP280;66444;49.680;18.538;2023-04-03T05:10:05;97983.96932272783;;;1.9321743078995497
77385;BMP280;66444;49.680;18.538;2023-04-03T05:15:09;97983.46324037097;;;1.8098450584802777
77385;BMP280;66444;49.680;18.538;2023-04-03T05:20:12;97983.21028429503;;;1.7231931449379772
77385;BMP280;66444;49.680;18.538;2023-04-03T05:25:15;97989.76948763205;;;1.6467341771814972
77385;BMP280;66444;49.680;18.538;2023-04-03T05:30:18;97998.15749324556;;;1.667123363306746
77385;BMP280;66444;49.680;18.538;2023-04-03T05:35:21;98002.87755164481;;;1.595760804414749
77385;BMP280;66444;49.680;18.538;2023-04-03T05:40:23;98001.04244873507;;;1.5498842712491752
77385;BMP280;66444;49.680;18.538;2023-04-03T05:45:26;98006.02140688086;;;1.5142021972686053
77385;BMP280;66444;49.680;18.538;2023-04-03T05:50:29;98017.55287790431;;;1.5040072666015476
77385;BMP280;66444;49.680;18.538;2023-04-03T05:55:31;98019.64390511587;;;1.4326421000063418
77385;BMP280;66444;49.680;18.538;2023-04-03T06:00:34;98015.98237717972;;;1.544786849571392
77385;BMP280;66444;49.680;18.538;2023-04-03T06:05:36;98017.55543773006;;;1.5549816871061921
77385;BMP280;66444;49.680;18.538;2023-04-03T06:10:44;98022.79765449866;;;1.5549816871061921
77385;BMP280;66444;49.680;18.538;2023-04-03T06:15:47;98034.3329414688;;;1.595760804414749
77385;BMP280;66444;49.680;18.538;2023-04-03T06:20:49;98032.48650446287;;;1.4479347317479552
77385;BMP280;66444;49.680;18.538;2023-04-03T06:25:52;98041.64806910462;;;1.3714710491709412
77385;BMP280;66444;49.680;18.538;2023-04-03T06:30:55;98043.21341629433;;;1.3306898829527198
77385;BMP280;66444;49.680;18.538;2023-04-03T06:35:58;98047.12841466888;;;1.2542241922114044
77385;BMP280;66444;49.680;18.538;2023-04-03T06:41:01;98050.99607021431;;;1.0248192619532346
77385;BMP280;66444;49.680;18.538;2023-04-03T06:46:04;98055.74964254272;;;1.1573657704982907
77385;BMP280;66444;49.680;18.538;2023-04-03T06:51:07;98056.80818064825;;;1.1981485199648887
77385;BMP280;66444;49.680;18.538;2023-04-03T06:56:15;98072.25360822825;;;1.1624636345542967
77385;BMP280;66444;49.680;18.538;2023-04-03T07:01:19;98068.09939470577;;;1.3052014648914336
77385;BMP280;66444;49.680;18.538;2023-04-03T07:06:22;98069.4151735662;;;1.3306898829527198
77385;BMP280;66444;49.680;18.538;2023-04-03T07:11:25;98068.38888836247;;;1.44283719365485
77385;BMP280;66444;49.680;18.538;2023-04-03T07:16:28;98078.34355044898;;;1.4224469830747695
77385;BMP280;66444;49.680;18.538;2023-04-03T07:21:31;98076.7586010999;;;1.3612757925409824
77385;BMP280;66444;49.680;18.538;2023-04-03T07:26:39;98096.14649873231;;;1.3510805126279593
77385;BMP280;66444;49.680;18.538;2023-04-03T07:31:42;98093.53843157338;;;1.4020566793624312
77385;BMP280;66444;49.680;18.538;2023-04-03T07:36:49;98091.48196146071;;;1.6263448979239912
77385;BMP280;66444;49.680;18.538;2023-04-03T07:41:52;98097.25812796799;;;1.697706967871636
77385;BMP280;66444;49.680;18.538;2023-04-03T07:46:56;98092.55084392024;;;1.9729499793145806
77385;BMP280;66444;49.680;18.538;2023-04-03T07:51:59;98099.89351021155;;;2.054500204557553
77385;BMP280;66444;49.680;18.538;2023-04-03T07:57:01;98100.68031795594;;;2.059597044158727
77385;BMP280;66444;49.680;18.538;2023-04-03T08:02:04;98109.84545549421;;;2.2889488017186523
77385;BMP280;66444;49.680;18.538;2023-04-03T08:07:13;98096.92681899866;;;2.5794441069941967
77385;BMP280;66444;49.680;18.538;2023-04-03T08:12:15;98108.15578934611;;;2.788385176518932
77385;BMP280;66444;49.680;18.538;2023-04-03T08:17:19;98106.29751162583;;;2.8444408718962224
77385;BMP280;66444;49.680;18.538;2023-04-03T08:22:21;98105.32781930377;;;3.247001991327852
77385;BMP280;66444;49.680;18.538;2023-04-03T08:27:24;98110.09576862091;;;3.175664694560692
77385;BMP280;66444;49.680;18.538;2023-04-03T08:32:27;98110.66060288005;;;3.0941349584143607
77385;BMP280;66444;49.680;18.538;2023-04-03T08:37:30;98127.43691992105;;;3.1858558068051934
77385;BMP280;66444;49.680;18.538;2023-04-03T08:42:37;98118.86968254008;;;3.471197496727109
77385;BMP280;66444;49.680;18.538;2023-04-03T08:47:51;98118.81982390543;;;3.914459985494614
77385;BMP280;66444;49.680;18.538;2023-04-03T08:53:00;98113.36968490481;;;3.4355307837482543
77385;BMP280;66444;49.680;18.538;2023-04-03T08:58:05;98132.49978033565;;;3.542530067032203
77385;BMP280;66444;49.680;18.538;2023-04-03T09:03:12;98120.62474500196;;;3.96031221114099
77385;BMP280;66444;49.680;18.538;2023-04-03T09:08:21;98116.85502605046;;;3.731046368088573
77385;BMP280;66444;49.680;18.538;2023-04-03T09:13:28;98116.61758685534;;;3.695381733123213
77385;BMP280;66444;49.680;18.538;2023-04-03T09:18:39;98112.9197308206;;;4.046920684305951
77385;BMP280;66444;49.680;18.538;2023-04-03T09:23:47;98113.51905982263;;;4.25579302222468
77385;BMP280;66444;49.680;18.538;2023-04-03T09:28:54;98111.8495565321;;;4.8263212437275795
77385;BMP280;66444;49.680;18.538;2023-04-03T09:34:02;98118.58614976941;;;4.698977524368092
77385;BMP280;66444;49.680;18.538;2023-04-03T09:39:10;98118.07706093938;;;4.439185056230054
77385;BMP280;66444;49.680;18.538;2023-04-03T09:44:20;98126.90724411885;;;4.001069349236786
77385;BMP280;66444;49.680;18.538;2023-04-03T09:49:25;98124.94651033751;;;3.817659294139594
77385;BMP280;66444;49.680;18.538;2023-04-03T09:54:33;98131.95466949709;;;3.5731008193455636
77385;BMP280;66444;49.680;18.538;2023-04-03T09:59:40;98143.20633729779;;;3.1858558068051934
77385;BMP280;66444;49.680;18.538;2023-04-03T10:04:46;98146.24713176338;;;2.7629050821531562
77385;BMP280;66444;49.680;18.538;2023-04-03T10:09:54;98144.32491038034;;;3.0227952169254424
77385;BMP280;66444;49.680;18.538;2023-04-03T10:14:59;98148.39047953588;;;3.3387196965049952
77385;BMP280;66444;49.680;18.538;2023-04-03T10:20:08;98142.12666836064;;;3.247001991327852
77385;BMP280;66444;49.680;18.538;2023-04-03T10:25:34;98140.03835569743;;;3.2164290038403123
77385;BMP280;66444;49.680;18.538;2023-04-03T10:30:46;98133.93586881508;;;3.756520932726562
77385;BMP280;66444;49.680;18.538;2023-04-03T10:35:59;98139.70296264158;;;4.408620241098106
77385;BMP280;66444;49.680;18.538;2023-04-03T10:41:12;98126.48393525621;;;4.45956148323603
77385;BMP280;66444;49.680;18.538;2023-04-03T10:46:20;98129.74190857387;;;4.617475634766743
77385;BMP280;66444;49.680;18.538;2023-04-03T10:51:31;98123.50885015057;;;5.193050829367712
77385;BMP280;66444;49.680;18.538;2023-04-03T10:56:47;98115.10081285221;;;5.875494997762144
77385;BMP280;66444;49.680;18.538;2023-04-03T11:01:53;98108.89270422517;;;6.109742778493091
77385;BMP280;66444;49.680;18.538;2023-04-03T11:07:02;98105.44786895116;;;5.641234900290146
77385;BMP280;66444;49.680;18.538;2023-04-03T11:12:13;98110.64568238723;;;5.692162056174129
77385;BMP280;66444;49.680;18.538;2023-04-03T11:17:25;98116.66865833466;;;5.371311256336048
77385;BMP280;66444;49.680;18.538;2023-04-03T11:22:37;98103.19447377702;;;5.386590389721095
77385;BMP280;66444;49.680;18.538;2023-04-03T11:27:44;98118.92928630518;;;5.6259566400200125
77385;BMP280;66444;49.680;18.538;2023-04-03T11:32:55;98113.52004515595;;;5.539378842292353
77385;BMP280;66444;49.680;18.538;2023-04-03T11:38:13;98118.76081572534;;;6.0537281253375115
77385;BMP280;66444;49.680;18.538;2023-04-03T11:43:24;98110.45927213908;;;6.119927185215056
77385;BMP280;66444;49.680;18.538;2023-04-03T11:48:45;98109.10968814319;;;6.282874526269734
77385;BMP280;66444;49.680;18.538;2023-04-03T11:53:51;98103.24168032345;;;6.313426489150151
77385;BMP280;66444;49.680;18.538;2023-04-03T11:59:36;98105.20252575459;;;6.394897365709767
77385;BMP280;66444;49.680;18.538;2023-04-03T12:04:39;98092.46620307236;;;6.69021680187434
77385;BMP280;66444;49.680;18.538;2023-04-03T12:10:27;98096.77788610538;;;6.649484250694513
77385;BMP280;66444;49.680;18.538;2023-04-03T12:15:50;98084.83186825411;;;6.67494213883765
77385;BMP280;66444;49.680;18.538;2023-04-03T12:20:56;98080.81466553791;;;6.700399881461635
77385;BMP280;66444;49.680;18.538;2023-04-03T12:26:00;98083.45801618329;;;6.700399881461635
77385;BMP280;66444;49.680;18.538;2023-04-03T12:31:10;98083.47243772923;;;6.562926342524588
77385;BMP280;66444;49.680;18.538;2023-04-03T12:36:17;98081.13043260646;;;6.410172989172861
77385;BMP280;66444;49.680;18.538;2023-04-03T12:41:31;98082.2923520571;;;6.624026217032224
77385;BMP280;66444;49.680;18.538;2023-04-03T12:46:46;98090.47723953314;;;6.883691332628951
77385;BMP280;66444;49.680;18.538;2023-04-03T12:51:51;98079.71233215171;;;6.848051919043064
77385;BMP280;66444;49.680;18.538;2023-04-03T12:57:08;98072.60111548156;;;7.077157458197325
77385;BMP280;66444;49.680;18.538;2023-04-03T13:02:17;98074.65666037393;;;7.555695446254686
77385;BMP280;66444;49.680;18.538;2023-04-03T13:07:30;98069.7647764227;;;7.713499887986108
77385;BMP280;66444;49.680;18.538;2023-04-03T13:12:35;98069.07076460688;;;7.881479114713147
77385;BMP280;66444;49.680;18.538;2023-04-03T13:17:48;98062.28480045462;;;8.044362008245661
77385;BMP280;66444;49.680;18.538;2023-04-03T13:22:53;98060.72254035524;;;8.034182002022863
77385;BMP280;66444;49.680;18.538;2023-04-03T13:28:05;98062.87550008969;;;7.392794671328739
77385;BMP280;66444;49.680;18.538;2023-04-03T13:33:19;98068.3541326929;;;6.842960550962016
77385;BMP280;66444;49.680;18.538;2023-04-03T13:38:25;98062.81753331666;;;6.583293060492724
77385;BMP280;66444;49.680;18.538;2023-04-03T13:43:31;98062.50534512244;;;7.545514322444797
77385;BMP280;66444;49.680;18.538;2023-04-03T13:48:38;98058.2071646654;;;9.886559639219195
77385;BMP280;66444;49.680;18.538;2023-04-03T13:53:49;98060.09530187218;;;11.219387084292247
77385;BMP280;66444;49.680;18.538;2023-04-03T13:58:55;98046.91707777049;;;10.507238922221585
77385;BMP280;66444;49.680;18.538;2023-04-03T14:04:10;98040.86084083594;;;8.319213375262915
77385;BMP280;66444;49.680;18.538;2023-04-03T14:09:16;98044.66919323335;;;6.7920465500094
77385;BMP280;66444;49.680;18.538;2023-04-03T14:14:21;98047.07795902996;;;6.394897365709767
77385;BMP280;66444;49.680;18.538;2023-04-03T14:19:29;98042.07127621757;;;7.774583976576105
77385;BMP280;66444;49.680;18.538;2023-04-03T14:24:35;98040.943930828;;;7.698228734871373
77385;BMP280;66444;49.680;18.538;2023-04-03T14:29:38;98038.2810721405;;;7.163705372111872
77385;BMP280;66444;49.680;18.538;2023-04-03T14:34:41;98044.85631492466;;;6.827686411794275
77385;BMP280;66444;49.680;18.538;2023-04-03T14:39:45;98043.74400483642;;;6.476366752153263
77385;BMP280;66444;49.680;18.538;2023-04-03T14:44:49;98058.4113805094;;;5.987528081750497
77385;BMP280;66444;49.680;18.538;2023-04-03T14:49:53;98041.9947077956;;;6.293058537179604
77385;BMP280;66444;49.680;18.538;2023-04-03T14:54:56;98043.91548640389;;;6.649484250694513
77385;BMP280;66444;49.680;18.538;2023-04-03T14:59:59;98055.88634828362;;;6.2115857979748395
77385;BMP280;66444;49.680;18.538;2023-04-03T15:05:04;98045.11732103773;;;6.038451279513538
77385;BMP280;66444;49.680;18.538;2023-04-03T15:10:14;98049.27045517384;;;7.545514322444797
77385;BMP280;66444;49.680;18.538;2023-04-03T15:15:20;98048.64295128685;;;6.405081120505929
77385;BMP280;66444;49.680;18.538;2023-04-03T15:20:29;98055.55760235719;;;5.488449940178543
77385;BMP280;66444;49.680;18.538;2023-04-03T15:25:37;98059.00480540577;;;5.305101072974503
77385;BMP280;66444;49.680;18.538;2023-04-03T15:30:42;98052.58243147546;;;5.366218200232834
77385;BMP280;66444;49.680;18.538;2023-04-03T15:35:45;98051.01550680748;;;5.3560320705641065
77385;BMP280;66444;49.680;18.538;2023-04-03T15:40:49;98053.82783741299;;;5.580121544888243
77385;BMP280;66444;49.680;18.538;2023-04-03T15:45:52;98050.72695061963;;;7.382613174989819
77385;BMP280;66444;49.680;18.538;2023-04-03T15:50:59;98041.9147144968;;;6.842960550962016
77385;BMP280;66444;49.680;18.538;2023-04-03T15:56:03;98058.56356572361;;;5.748181255348027
77385;BMP280;66444;49.680;18.538;2023-04-03T16:01:08;98059.00480540577;;;5.305101072974503
77385;BMP280;66444;49.680;18.538;2023-04-03T16:06:13;98067.4947151571;;;5.086091150576249
77385;BMP280;66444;49.680;18.538;2023-04-03T16:11:22;98066.98441935166;;;4.8772577128373085
77385;BMP280;66444;49.680;18.538;2023-04-03T16:16:25;98063.00578220002;;;5.091184526821598
77385;BMP280;66444;49.680;18.538;2023-04-03T16:21:39;98070.1359468654;;;5.9264194760937245
77385;BMP280;66444;49.680;18.538;2023-04-03T16:26:42;98069.51130471933;;;6.9193304609972985
77385;BMP280;66444;49.680;18.538;2023-04-03T16:31:45;98063.95236296611;;;7.158614364918321
77385;BMP280;66444;49.680;18.538;2023-04-03T16:36:48;98071.63814092988;;;6.2625064346008
77385;BMP280;66444;49.680;18.538;2023-04-03T16:41:52;98068.87538899873;;;5.575028727436438
77385;BMP280;66444;49.680;18.538;2023-04-03T16:46:55;98077.25627488532;;;5.080997768510133
77385;BMP280;66444;49.680;18.538;2023-04-03T16:51:58;98070.3769130735;;;4.693883699923754
77385;BMP280;66444;49.680;18.538;2023-04-03T16:57:01;98081.71105368428;;;4.45956148323603
77385;BMP280;66444;49.680;18.538;2023-04-03T17:02:04;98090.60847496685;;;4.2608873472549025
77385;BMP280;66444;49.680;18.538;2023-04-03T17:07:08;98098.46672098615;;;4.021447778586298
77385;BMP280;66444;49.680;18.538;2023-04-03T17:12:12;98100.12445790294;;;3.9297441130969673
77385;BMP280;66444;49.680;18.538;2023-04-03T17:17:15;98109.16085345365;;;3.817659294139594
77385;BMP280;66444;49.680;18.538;2023-04-03T17:22:22;98112.17835563616;;;3.6495267833583056
77385;BMP280;66444;49.680;18.538;2023-04-03T17:27:26;98118.86968254008;;;3.471197496727109
77385;BMP280;66444;49.680;18.538;2023-04-03T17:32:29;98126.3294929238;;;3.297956504812464
77385;BMP280;66444;49.680;18.538;2023-04-03T17:37:32;98123.75247664248;;;3.1960468957666306
77385;BMP280;66444;49.680;18.538;2023-04-03T17:42:35;98131.16633162124;;;3.0737522915471347
77385;BMP280;66444;49.680;18.538;2023-04-03T17:47:39;98134.3521176583;;;2.9922206927556543
77385;BMP280;66444;49.680;18.538;2023-04-03T17:52:42;98133.85279210412;;;2.9208793214522304
77385;BMP280;66444;49.680;18.538;2023-04-03T17:57:50;98146.50011397696;;;2.7985771735198797
77385;BMP280;66444;49.680;18.538;2023-04-03T18:02:54;98141.24696330226;;;2.7985771735198797
77385;BMP280;66444;49.680;18.538;2023-04-03T18:07:57;98153.59323650686;;;2.793481177929789
77385;BMP280;66444;49.680;18.538;2023-04-03T18:13:03;98152.25831592912;;;2.8699205006007107
77385;BMP280;66444;49.680;18.538;2023-04-03T18:18:08;98154.89969172544;;;2.818961097672582
77385;BMP280;66444;49.680;18.538;2023-04-03T18:23:11;98158.57973872723;;;2.8087691472377627
77385;BMP280;66444;49.680;18.538;2023-04-03T18:28:14;98160.6862467409;;;2.788385176518932
77385;BMP280;66444;49.680;18.538;2023-04-03T18:33:18;98158.57973872723;;;2.8087691472377627
77385;BMP280;66444;49.680;18.538;2023-04-03T18:38:21;98161.7263559662;;;2.829153024824336
77385;BMP280;66444;49.680;18.538;2023-04-03T18:43:30;98170.8994352113;;;2.9055917363148183
77385;BMP280;66444;49.680;18.538;2023-04-03T18:48:33;98173.77896717044;;;2.9412626868113874
77385;BMP280;66444;49.680;18.538;2023-04-03T18:53:37;98168.5245376236;;;2.9412626868113874
77385;BMP280;66444;49.680;18.538;2023-04-03T18:58:41;98175.09988837632;;;2.9157834655605255
77385;BMP280;66444;49.680;18.538;2023-04-03T19:03:45;98162.23166189212;;;2.9004958629608155
77385;BMP280;66444;49.680;18.538;2023-04-03T19:08:48;98160.1238427587;;;2.9208793214522304
77385;BMP280;66444;49.680;18.538;2023-04-03T19:13:52;98158.29868897822;;;2.87501640887931
77385;BMP280;66444;49.680;18.538;2023-04-03T19:23:58;98164.8983134908;;;2.747616955684498
77385;BMP280;66444;49.680;18.538;2023-04-03T19:29:02;98182.761648663;;;2.7272327055688947
77385;BMP280;66444;49.680;18.538;2023-04-03T19:34:11;98175.93528164156;;;2.7170405455864968
77385;BMP280;66444;49.680;18.538;2023-04-03T19:39:19;98164.38817325303;;;2.6762716728262603
77385;BMP280;66444;49.680;18.538;2023-04-03T19:44:22;98178.04010812711;;;2.6966561557725073
77385;BMP280;66444;49.680;18.538;2023-04-03T19:49:32;98173.31865035297;;;2.6660793964285405
77385;BMP280;66444;49.680;18.538;2023-04-03T19:54:35;98179.63058147288;;;2.6049252490978687
77385;BMP280;66444;49.680;18.538;2023-04-03T19:59:40;98174.90106251882;;;2.625310058007017
77385;BMP280;66444;49.680;18.538;2023-04-03T20:04:45;98174.37903922606;;;2.6049252490978687
77385;BMP280;66444;49.680;18.538;2023-04-03T20:09:49;98168.0755438468;;;2.615117665193975
77385;BMP280;66444;49.680;18.538;2023-04-03T20:14:59;98175.4229437007;;;2.6456947737839074
77385;BMP280;66444;49.680;18.538;2023-04-03T20:20:05;98181.46182441301;;;2.6507909381762147
77385;BMP280;66444;49.680;18.538;2023-04-03T20:25:11;98190.13369449154;;;2.6049252490978687
77385;BMP280;66444;49.680;18.538;2023-04-03T20:30:17;98182.52097430022;;;2.589636581297964
77385;BMP280;66444;49.680;18.538;2023-04-03T20:35:21;98184.08779833118;;;2.6507909381762147
77385;BMP280;66444;49.680;18.538;2023-04-03T20:40:26;98187.50080759633;;;2.655887096747756
77385;BMP280;66444;49.680;18.538;2023-04-03T20:45:31;98189.07488043785;;;2.6660793964285405
77385;BMP280;66444;49.680;18.538;2023-04-03T20:50:37;98193.79715416816;;;2.6966561557725073
77385;BMP280;66444;49.680;18.538;2023-04-03T20:55:54;98199.0495218709;;;2.6966561557725073
77385;BMP280;66444;49.680;18.538;2023-04-03T21:00:59;98191.17097388349;;;2.6966561557725073
77385;BMP280;66444;49.680;18.538;2023-04-03T21:20:05;98199.06246531189;;;2.5947328097186984
77385;BMP280;66444;49.680;18.538;2023-04-03T21:25:10;98202.21622420888;;;2.5641553518828006
77385;BMP280;66444;49.680;18.538;2023-04-03T21:30:15;98199.59770086827;;;2.462228979030624
77385;BMP280;66444;49.680;18.538;2023-04-03T21:35:25;98200.64979625418;;;2.4010720377322285
77385;BMP280;66444;49.680;18.538;2023-04-03T21:40:29;98193.82339763195;;;2.4418434250634165
77385;BMP280;66444;49.680;18.538;2023-04-03T21:45:34;98194.34391970119;;;2.513192456495017
77385;BMP280;66444;49.680;18.538;2023-04-03T21:50:39;98191.19506248448;;;2.492807135358453
77385;BMP280;66444;49.680;18.538;2023-04-03T21:55:51;98178.0685870158;;;2.492807135358453
77385;BMP280;66444;49.680;18.538;2023-04-03T22:00:57;98171.77188989734;;;2.4520362136885523
77385;BMP280;66444;49.680;18.538;2023-04-03T22:06:11;98152.08660478634;;;2.4265541984699666
77385;BMP280;66444;49.680;18.538;2023-04-03T22:11:17;98149.20297152978;;;2.390879132691771
77385;BMP280;66444;49.680;18.538;2023-04-03T22:16:23;98138.70912215525;;;2.339914258243516
77385;BMP280;66444;49.680;18.538;2023-04-03T22:21:29;98139.24285896534;;;2.2074028605595233
77385;BMP280;66444;49.680;18.538;2023-04-03T22:26:39;98132.94781297799;;;2.064693877939135